Time;durP1;ratioP1;P1;durP2;ratioP2;P2;SDS_P1;SDS_P2;PMS_P1;PMS_P2;Temp;Humidity;BMP_temperature;BMP_pressure;BME280_temperature;BME280_humidity;BME280_pressure;Samples;Min_cycle;Max_cycle;Signal;HPM_P1;HPM_P2
2021/11/07 00:00:07;;;;;;;3.00;2.70;;;9.00;99.90;;;;;;5017482;28;20572;-72
2021/11/07 00:02:41;;;;;;;3.30;2.70;;;9.20;99.90;;;;;;5017459;28;20403;-72
2021/11/07 00:05:21;;;;;;;3.27;2.47;;;9.00;99.90;;;;;;5016823;28;20412;-73
2021/11/07 00:08:00;;;;;;;2.57;2.30;;;9.00;99.90;;;;;;5017581;28;20769;-72
2021/11/07 00:10:42;;;;;;;4.20;3.00;;;9.00;99.90;;;;;;5017234;28;20856;-73
2021/11/07 00:13:23;;;;;;;3.67;3.13;;;9.00;99.90;;;;;;5016690;28;20447;-71
2021/11/07 00:15:49;;;;;;;2.50;2.10;;;9.20;99.90;;;;;;5017190;28;20427;-73
2021/11/07 00:18:20;;;;;;;4.67;3.23;;;9.10;99.90;;;;;;5016272;28;20471;-72
2021/11/07 00:21:11;;;;;;;2.90;2.50;;;9.00;99.90;;;;;;5016752;28;20230;-73
2021/11/07 00:23:43;;;;;;;4.43;2.97;;;8.90;99.90;;;;;;5016171;28;20411;-73
2021/11/07 00:26:24;;;;;;;3.53;2.90;;;8.80;99.90;;;;;;5017469;28;20728;-72
2021/11/07 00:29:07;;;;;;;3.43;2.70;;;8.90;99.90;;;;;;5016177;28;20434;-72
2021/11/07 00:31:46;;;;;;;2.50;2.30;;;8.80;99.90;;;;;;5017201;28;20411;-73
2021/11/07 00:34:43;;;;;;;4.03;2.30;;;8.80;99.90;;;;;;5017662;28;20423;-73
2021/11/07 00:37:10;;;;;;;3.37;2.20;;;8.80;99.90;;;;;;5017203;28;20412;-71
2021/11/07 00:39:51;;;;;;;3.60;2.90;;;8.80;99.90;;;;;;5016562;28;20478;-71
2021/11/07 00:42:23;;;;;;;4.63;4.13;;;8.80;99.90;;;;;;5016789;28;20403;-74
2021/11/07 00:45:07;;;;;;;2.50;2.27;;;8.90;99.90;;;;;;5015911;28;20816;-73
2021/11/07 00:50:03;;;;;;;4.20;2.97;;;9.00;99.90;;;;;;5015644;28;20431;-73
2021/11/07 00:52:37;;;;;;;4.00;2.27;;;8.90;99.90;;;;;;5015680;28;20187;-73
2021/11/07 00:55:14;;;;;;;2.20;1.90;;;8.80;99.90;;;;;;5015835;28;20411;-71
2021/11/07 00:57:53;;;;;;;4.10;2.70;;;8.70;99.90;;;;;;5016211;28;20456;-72
2021/11/07 01:00:28;;;;;;;4.93;3.27;;;8.60;99.90;;;;;;5015829;28;20455;-71
2021/11/07 01:02:58;;;;;;;4.97;2.97;;;8.70;99.90;;;;;;5015374;28;20414;-70
2021/11/07 01:05:27;;;;;;;4.90;2.60;;;8.50;99.90;;;;;;5016285;28;20415;-71
2021/11/07 01:07:56;;;;;;;4.07;2.40;;;8.60;99.90;;;;;;5017055;28;20419;-73
2021/11/07 01:10:26;;;;;;;3.10;2.40;;;8.50;99.90;;;;;;5016691;28;20754;-71
2021/11/07 01:12:52;;;;;;;5.00;2.70;;;8.50;99.90;;;;;;5015710;28;20411;-71
2021/11/07 01:15:18;;;;;;;2.50;2.30;;;8.50;99.90;;;;;;5015714;28;20411;-72
2021/11/07 01:17:44;;;;;;;4.23;2.50;;;8.50;99.90;;;;;;5015104;28;20628;-70
2021/11/07 01:20:12;;;;;;;3.80;2.93;;;8.50;99.90;;;;;;5015498;28;20558;-72
2021/11/07 01:22:53;;;;;;;3.83;3.33;;;8.40;99.90;;;;;;5015311;28;20518;-71
2021/11/07 01:25:20;;;;;;;4.03;3.53;;;8.40;99.90;;;;;;5015871;28;20395;-73
2021/11/07 01:27:46;;;;;;;4.50;3.07;;;8.50;99.90;;;;;;5021174;28;20427;-71
2021/11/07 01:30:20;;;;;;;5.80;2.77;;;8.40;99.90;;;;;;5033431;28;20929;-72
2021/11/07 01:32:52;;;;;;;5.40;3.37;;;8.40;99.90;;;;;;5034502;28;20505;-72
2021/11/07 01:35:22;;;;;;;3.30;2.43;;;8.30;99.90;;;;;;5034016;28;20430;-72
2021/11/07 01:37:57;;;;;;;5.73;3.77;;;8.30;99.90;;;;;;5032989;28;20422;-73
2021/11/07 01:40:27;;;;;;;4.70;3.50;;;8.30;99.90;;;;;;5034646;28;20541;-72
2021/11/07 01:42:55;;;;;;;3.83;3.37;;;8.30;99.90;;;;;;5034247;28;20411;-71
2021/11/07 01:45:25;;;;;;;3.27;2.67;;;8.30;99.90;;;;;;5034445;28;20433;-73
2021/11/07 01:48:01;;;;;;;3.33;2.70;;;8.30;99.90;;;;;;5033519;28;20403;-73
2021/11/07 01:50:27;;;;;;;3.80;3.13;;;8.30;99.90;;;;;;5034903;28;20410;-73
2021/11/07 01:53:02;;;;;;;4.30;3.20;;;8.30;99.90;;;;;;5034228;28;20417;-72
2021/11/07 01:55:28;;;;;;;3.47;2.60;;;8.30;99.90;;;;;;5032647;28;20266;-71
2021/11/07 01:57:54;;;;;;;3.90;2.37;;;8.50;99.90;;;;;;5033968;28;20433;-72
2021/11/07 02:00:25;;;;;;;5.10;3.50;;;8.40;99.90;;;;;;5035719;28;20203;-71
2021/11/07 02:02:50;;;;;;;5.13;3.07;;;8.40;99.90;;;;;;5035092;28;20197;-71
2021/11/07 02:05:19;;;;;;;3.00;2.47;;;8.50;99.90;;;;;;5035241;28;20417;-72
2021/11/07 02:07:45;;;;;;;5.47;3.43;;;8.40;99.90;;;;;;5035839;28;20184;-71
2021/11/07 02:10:13;;;;;;;3.53;3.20;;;8.40;99.90;;;;;;5034012;28;20438;-71
2021/11/07 02:12:40;;;;;;;2.93;2.47;;;8.50;99.90;;;;;;5035940;28;20416;-71
2021/11/07 02:15:11;;;;;;;3.70;3.00;;;8.40;99.90;;;;;;5038650;28;20463;-70
2021/11/07 02:17:37;;;;;;;7.10;2.87;;;8.50;99.90;;;;;;5038019;28;20426;-72
2021/11/07 02:20:06;;;;;;;8.50;3.33;;;8.60;99.90;;;;;;5037905;28;20797;-72
2021/11/07 02:22:32;;;;;;;7.20;4.00;;;8.40;99.90;;;;;;5037678;28;20418;-71
2021/11/07 02:24:58;;;;;;;7.67;3.10;;;8.50;99.90;;;;;;5038116;28;20963;-70
2021/11/07 02:27:24;;;;;;;4.37;2.70;;;8.50;99.90;;;;;;5036510;28;20207;-72
2021/11/07 02:29:51;;;;;;;4.40;2.90;;;8.50;99.90;;;;;;5038452;28;20595;-71
2021/11/07 02:32:17;;;;;;;4.67;2.90;;;8.50;99.90;;;;;;5038474;28;20410;-73
2021/11/07 02:34:44;;;;;;;2.47;2.27;;;8.60;99.90;;;;;;5036950;28;20417;-70
2021/11/07 02:37:11;;;;;;;8.70;3.23;;;8.50;99.90;;;;;;5037796;28;20252;-72
2021/11/07 02:39:37;;;;;;;7.40;4.40;;;8.50;99.90;;;;;;5037180;28;20899;-71
2021/11/07 02:42:06;;;;;;;4.27;3.50;;;8.50;99.90;;;;;;5038369;28;20441;-71
2021/11/07 02:44:48;;;;;;;3.33;2.10;;;8.60;99.90;;;;;;5037588;28;20200;-73
2021/11/07 02:47:16;;;;;;;2.43;2.23;;;8.60;99.90;;;;;;5036905;28;20426;-72
2021/11/07 02:49:43;;;;;;;5.53;3.20;;;8.50;99.90;;;;;;5036776;28;20965;-73
2021/11/07 02:52:13;;;;;;;7.60;2.50;;;8.50;99.90;;;;;;5036281;28;20461;-72
2021/11/07 02:54:39;;;;;;;4.87;4.23;;;8.50;99.90;;;;;;5035406;28;20410;-72
2021/11/07 02:57:12;;;;;;;3.00;2.67;;;8.60;99.90;;;;;;5038263;28;20410;-71
2021/11/07 02:59:40;;;;;;;4.63;3.60;;;8.70;99.90;;;;;;5037480;28;20544;-72
2021/11/07 03:02:07;;;;;;;2.67;2.43;;;8.70;99.90;;;;;;5037862;28;20816;-72
2021/11/07 03:04:34;;;;;;;3.20;2.20;;;8.70;99.90;;;;;;5037338;28;20419;-72
2021/11/07 03:06:59;;;;;;;4.57;2.03;;;8.70;99.90;;;;;;5038178;28;20407;-71
2021/11/07 03:09:29;;;;;;;3.97;3.40;;;8.70;99.90;;;;;;5037450;28;20430;-71
2021/11/07 03:11:56;;;;;;;4.03;2.50;;;8.70;99.90;;;;;;5037362;28;20655;-72
2021/11/07 03:14:33;;;;;;;3.93;2.60;;;8.70;99.90;;;;;;5037179;28;20410;-71
2021/11/07 03:17:00;;;;;;;3.50;2.90;;;8.70;99.90;;;;;;5037590;28;20747;-72
2021/11/07 03:19:27;;;;;;;2.13;1.87;;;8.80;99.90;;;;;;5036438;28;20450;-72
2021/11/07 03:21:55;;;;;;;3.17;2.43;;;8.90;99.90;;;;;;5035710;28;20887;-71
2021/11/07 03:24:22;;;;;;;2.90;2.17;;;8.80;99.90;;;;;;5034906;28;20422;-72
2021/11/07 03:26:48;;;;;;;3.90;3.13;;;8.70;99.90;;;;;;5037493;28;20420;-73
2021/11/07 03:29:13;;;;;;;3.47;2.80;;;8.70;99.90;;;;;;5037311;28;20597;-72
2021/11/07 03:34:33;;;;;;;6.83;2.67;;;8.70;99.90;;;;;;5036632;28;20531;-72
2021/11/07 03:37:01;;;;;;;5.37;3.17;;;8.70;99.90;;;;;;5037065;28;20418;-72
2021/11/07 03:39:30;;;;;;;6.13;2.20;;;8.80;99.90;;;;;;5036707;28;20867;-72
2021/11/07 03:41:56;;;;;;;6.97;3.47;;;8.80;99.90;;;;;;5036578;28;20402;-71
2021/11/07 03:44:22;;;;;;;3.10;2.40;;;8.90;99.90;;;;;;5036136;28;20505;-71
2021/11/07 03:46:54;;;;;;;4.27;3.43;;;9.00;99.90;;;;;;5036530;28;20825;-72
2021/11/07 03:49:20;;;;;;;7.10;3.17;;;8.90;99.90;;;;;;5037634;28;20426;-73
2021/11/07 03:51:46;;;;;;;4.03;3.23;;;8.80;99.90;;;;;;5037766;28;20467;-72
2021/11/07 03:54:15;;;;;;;2.90;2.17;;;8.70;99.90;;;;;;5037156;28;20277;-72
2021/11/07 03:56:41;;;;;;;3.30;2.40;;;8.80;99.90;;;;;;5036546;28;20413;-72
2021/11/07 03:59:07;;;;;;;2.10;1.70;;;8.80;99.90;;;;;;5035901;28;20442;-71
2021/11/07 04:01:36;;;;;;;2.87;1.40;;;8.80;99.90;;;;;;5035593;28;20838;-72
2021/11/07 04:04:01;;;;;;;2.87;2.20;;;8.60;99.90;;;;;;5035780;28;20489;-72
2021/11/07 04:06:28;;;;;;;3.17;2.47;;;8.60;99.90;;;;;;5035892;28;20391;-72
2021/11/07 04:08:54;;;;;;;2.23;1.97;;;8.60;99.90;;;;;;5037064;28;20263;-72
2021/11/07 04:11:19;;;;;;;2.43;2.17;;;8.60;99.90;;;;;;5039278;28;20407;-72
2021/11/07 04:13:47;;;;;;;3.60;2.50;;;8.60;99.90;;;;;;5038238;28;20586;-71
2021/11/07 04:16:15;;;;;;;2.93;2.40;;;8.50;99.90;;;;;;5036838;28;20171;-73
2021/11/07 04:18:44;;;;;;;4.17;2.10;;;8.50;99.90;;;;;;5037502;28;20486;-72
2021/11/07 04:21:10;;;;;;;2.93;2.37;;;8.60;99.90;;;;;;5037555;28;20829;-72
2021/11/07 04:23:36;;;;;;;3.13;2.10;;;8.50;99.90;;;;;;5038142;28;20407;-72
2021/11/07 04:26:02;;;;;;;3.30;2.27;;;8.50;99.90;;;;;;5035767;28;20167;-71
2021/11/07 04:28:28;;;;;;;3.40;2.27;;;8.50;99.90;;;;;;5034536;28;20218;-70
2021/11/07 04:30:54;;;;;;;6.43;2.60;;;8.60;99.90;;;;;;5034749;28;20458;-70
2021/11/07 04:33:20;;;;;;;3.20;2.60;;;8.60;99.90;;;;;;5031812;28;20419;-69
2021/11/07 04:35:46;;;;;;;2.97;2.27;;;8.60;99.90;;;;;;5033681;28;20413;-71
2021/11/07 04:38:11;;;;;;;3.80;2.23;;;8.60;99.90;;;;;;5035106;28;20516;-72
2021/11/07 04:40:37;;;;;;;2.33;2.10;;;8.60;99.90;;;;;;5035402;28;20243;-71
2021/11/07 04:43:02;;;;;;;2.97;2.67;;;8.60;99.90;;;;;;5034506;28;20202;-72
2021/11/07 04:45:28;;;;;;;2.13;1.87;;;8.60;99.90;;;;;;5034173;28;20161;-71
2021/11/07 04:47:54;;;;;;;2.10;2.00;;;8.60;99.90;;;;;;5034544;28;20169;-71
2021/11/07 04:50:20;;;;;;;2.67;2.40;;;8.70;99.90;;;;;;5034235;28;20251;-71
2021/11/07 04:52:49;;;;;;;2.73;2.40;;;8.70;99.90;;;;;;5035710;28;20443;-72
2021/11/07 04:55:15;;;;;;;3.33;2.20;;;8.60;99.90;;;;;;5036155;28;20479;-72
2021/11/07 04:57:42;;;;;;;6.07;2.37;;;8.50;99.90;;;;;;5036795;28;20402;-71
2021/11/07 05:00:20;;;;;;;4.40;2.20;;;8.60;99.90;;;;;;5036857;28;20461;-71
2021/11/07 05:02:47;;;;;;;2.47;1.67;;;8.50;99.90;;;;;;5036589;28;20489;-71
2021/11/07 05:05:14;;;;;;;5.57;2.20;;;8.70;99.90;;;;;;5035870;28;20402;-71
2021/11/07 05:07:39;;;;;;;2.80;1.83;;;8.70;99.90;;;;;;5035305;28;20434;-70
2021/11/07 05:10:05;;;;;;;2.40;1.97;;;8.80;99.90;;;;;;5034877;28;20470;-70
2021/11/07 05:12:31;;;;;;;3.33;2.40;;;8.80;99.90;;;;;;5035150;28;20171;-70
2021/11/07 05:14:56;;;;;;;4.77;2.67;;;8.80;99.90;;;;;;5034919;28;20406;-70
2021/11/07 05:17:22;;;;;;;4.33;2.83;;;8.70;99.90;;;;;;5034816;28;20210;-70
2021/11/07 05:19:48;;;;;;;1.90;1.80;;;8.80;99.90;;;;;;5034423;28;20567;-70
2021/11/07 05:22:14;;;;;;;2.83;1.63;;;8.80;99.90;;;;;;5033549;28;20359;-70
2021/11/07 05:24:39;;;;;;;2.37;2.07;;;8.90;99.90;;;;;;5034895;28;20439;-71
2021/11/07 05:27:05;;;;;;;2.10;1.90;;;8.80;99.90;;;;;;5034945;28;20172;-70
2021/11/07 05:29:30;;;;;;;2.00;1.90;;;8.90;99.90;;;;;;5034715;28;20690;-71
2021/11/07 05:31:57;;;;;;;4.87;2.10;;;8.90;99.90;;;;;;5034866;28;20175;-70
2021/11/07 05:34:23;;;;;;;1.63;1.47;;;8.90;99.90;;;;;;5034648;28;20223;-71
2021/11/07 05:36:51;;;;;;;1.63;1.40;;;9.00;99.90;;;;;;5034862;28;20407;-71
2021/11/07 05:39:19;;;;;;;1.97;1.63;;;9.00;99.90;;;;;;5034443;28;20452;-71
2021/11/07 05:41:45;;;;;;;4.83;2.57;;;9.10;99.90;;;;;;5033589;28;20448;-72
2021/11/07 05:44:11;;;;;;;1.97;1.20;;;9.10;99.90;;;;;;5034537;28;20426;-71
2021/11/07 05:46:36;;;;;;;2.27;2.07;;;9.10;99.90;;;;;;5033143;28;20170;-72
2021/11/07 05:49:03;;;;;;;3.60;2.37;;;9.10;99.90;;;;;;5038941;28;20191;-71
2021/11/07 05:51:29;;;;;;;2.20;1.93;;;9.20;99.90;;;;;;5038373;28;20163;-71
2021/11/07 05:53:54;;;;;;;3.17;1.67;;;9.10;99.90;;;;;;5038471;28;20936;-72
2021/11/07 05:56:20;;;;;;;2.17;1.53;;;9.10;99.90;;;;;;5037578;28;20264;-71
2021/11/07 05:58:45;;;;;;;2.53;1.90;;;9.20;99.90;;;;;;5039211;28;20188;-72
2021/11/07 06:01:11;;;;;;;1.70;1.60;;;9.20;99.90;;;;;;5038603;28;20705;-72
2021/11/07 06:03:37;;;;;;;2.13;1.87;;;9.20;99.90;;;;;;5037561;28;20220;-73
2021/11/07 06:06:03;;;;;;;2.10;1.90;;;9.30;99.90;;;;;;5038147;28;20257;-72
2021/11/07 06:08:29;;;;;;;2.93;2.53;;;9.20;99.90;;;;;;5038021;28;20270;-72
2021/11/07 06:10:58;;;;;;;1.60;1.20;;;9.20;99.90;;;;;;5037832;28;20416;-72
2021/11/07 06:13:24;;;;;;;2.07;1.40;;;9.30;99.90;;;;;;5039270;28;20856;-72
2021/11/07 06:15:50;;;;;;;2.33;1.83;;;9.30;99.90;;;;;;5038861;28;20483;-70
2021/11/07 06:18:15;;;;;;;2.67;2.17;;;9.30;99.90;;;;;;5037640;28;20833;-71
2021/11/07 06:20:41;;;;;;;2.10;1.87;;;9.30;99.90;;;;;;5037729;28;20203;-71
2021/11/07 06:23:09;;;;;;;2.03;1.63;;;9.30;99.90;;;;;;5037017;28;20174;-70
2021/11/07 06:25:35;;;;;;;3.37;3.07;;;9.40;99.90;;;;;;5038062;28;20160;-70
2021/11/07 06:28:00;;;;;;;2.23;1.53;;;9.50;99.90;;;;;;5038736;28;20412;-71
2021/11/07 06:30:26;;;;;;;3.30;1.80;;;9.50;99.90;;;;;;5038345;28;20234;-71
2021/11/07 06:32:52;;;;;;;4.57;2.60;;;9.50;99.90;;;;;;5038609;28;20175;-71
2021/11/07 06:35:17;;;;;;;2.80;2.07;;;9.50;99.90;;;;;;5038239;28;20410;-71
2021/11/07 06:37:43;;;;;;;2.60;1.87;;;9.40;99.90;;;;;;5037812;28;20540;-71
2021/11/07 06:40:11;;;;;;;3.13;2.10;;;9.50;99.90;;;;;;5039157;28;20227;-71
2021/11/07 06:42:37;;;;;;;1.97;1.77;;;9.50;99.90;;;;;;5039407;28;20163;-71
2021/11/07 06:45:03;;;;;;;1.83;1.73;;;9.50;99.90;;;;;;5038499;28;20398;-71
2021/11/07 06:47:29;;;;;;;1.90;1.77;;;9.50;99.90;;;;;;5038201;28;20569;-72
2021/11/07 06:49:55;;;;;;;2.90;1.30;;;9.50;99.90;;;;;;5034524;28;20875;-71
2021/11/07 06:52:21;;;;;;;2.20;1.50;;;9.40;99.90;;;;;;5039561;28;20171;-71
2021/11/07 06:54:47;;;;;;;2.10;1.77;;;9.30;99.90;;;;;;5039752;28;20442;-70
2021/11/07 06:57:13;;;;;;;2.30;2.03;;;9.20;99.90;;;;;;5037249;28;20640;-72
2021/11/07 06:59:39;;;;;;;1.80;1.53;;;9.10;99.90;;;;;;5036231;28;20516;-72
2021/11/07 07:02:05;;;;;;;5.87;1.60;;;9.10;99.90;;;;;;5038759;28;20188;-74
2021/11/07 07:04:33;;;;;;;2.67;1.70;;;9.10;99.90;;;;;;5040480;28;20410;-72
2021/11/07 07:06:59;;;;;;;2.57;1.77;;;9.10;99.90;;;;;;5037726;28;20412;-71
2021/11/07 07:09:30;;;;;;;2.90;2.07;;;9.20;99.90;;;;;;5037420;28;20437;-72
2021/11/07 07:12:06;;;;;;;2.00;1.60;;;9.40;99.90;;;;;;5037317;28;20587;-71
2021/11/07 07:14:39;;;;;;;3.13;2.03;;;9.30;99.90;;;;;;5034170;28;20999;-72
2021/11/07 07:17:24;;;;;;;2.43;1.73;;;9.30;99.90;;;;;;5033362;28;20415;-73
2021/11/07 07:19:59;;;;;;;3.97;2.13;;;9.40;99.90;;;;;;5029683;28;20443;-74
2021/11/07 07:22:52;;;;;;;3.10;2.23;;;9.30;99.90;;;;;;5037525;28;20410;-72
2021/11/07 07:25:35;;;;;;;3.33;2.43;;;9.30;99.90;;;;;;5018181;28;20416;-73
2021/11/07 07:30:45;;;;;;;2.33;1.83;;;9.20;99.90;;;;;;5018429;28;20876;-73
2021/11/07 07:33:28;;;;;;;1.97;1.20;;;9.40;99.90;;;;;;5029460;28;20429;-73
2021/11/07 07:35:56;;;;;;;2.30;2.10;;;9.20;99.90;;;;;;5022789;28;20402;-70
2021/11/07 07:38:23;;;;;;;3.40;2.23;;;9.40;99.90;;;;;;5026311;28;20434;-72
2021/11/07 07:40:48;;;;;;;2.60;2.30;;;9.30;99.90;;;;;;5032237;28;20476;-72
2021/11/07 07:43:14;;;;;;;2.90;1.77;;;9.30;99.90;;;;;;5038409;28;20401;-71
2021/11/07 07:45:39;;;;;;;3.47;1.73;;;9.40;99.90;;;;;;5025713;28;20204;-74
2021/11/07 07:48:05;;;;;;;3.70;1.97;;;9.40;99.90;;;;;;5031816;28;20200;-73
2021/11/07 07:50:31;;;;;;;1.63;1.37;;;9.40;99.90;;;;;;5017927;28;20174;-72
2021/11/07 07:52:57;;;;;;;1.60;1.50;;;9.30;99.90;;;;;;5018682;28;20198;-72
2021/11/07 07:55:25;;;;;;;2.60;2.30;;;9.30;99.90;;;;;;5018874;28;20441;-72
2021/11/07 07:57:51;;;;;;;3.73;1.93;;;9.50;99.90;;;;;;5019739;28;20549;-72
2021/11/07 08:00:18;;;;;;;3.20;2.27;;;9.40;99.90;;;;;;5017952;28;20448;-72
2021/11/07 08:02:44;;;;;;;2.87;1.80;;;9.30;99.90;;;;;;5016965;28;20224;-71
2021/11/07 08:05:11;;;;;;;4.20;2.00;;;9.30;99.90;;;;;;5019993;28;20425;-71
2021/11/07 08:07:36;;;;;;;4.03;3.47;;;9.30;99.90;;;;;;5040462;28;20437;-72
2021/11/07 08:10:04;;;;;;;3.17;2.07;;;9.30;99.90;;;;;;5036935;28;20440;-72
2021/11/07 08:12:29;;;;;;;2.40;1.57;;;9.30;99.90;;;;;;5018810;28;20230;-71
2021/11/07 08:14:55;;;;;;;2.20;2.00;;;9.30;99.90;;;;;;5018487;28;20894;-71
2021/11/07 08:17:21;;;;;;;2.20;2.00;;;9.30;99.90;;;;;;5017792;28;20551;-71
2021/11/07 08:19:47;;;;;;;2.30;1.70;;;9.30;99.90;;;;;;5018727;28;20223;-71
2021/11/07 08:22:13;;;;;;;2.13;1.93;;;9.30;99.90;;;;;;5019258;28;20551;-71
2021/11/07 08:24:38;;;;;;;3.80;2.90;;;9.30;99.90;;;;;;5037335;28;20256;-72
2021/11/07 08:27:08;;;;;;;2.10;1.80;;;9.30;99.90;;;;;;5038597;28;20407;-72
2021/11/07 08:29:34;;;;;;;4.20;3.77;;;9.40;99.90;;;;;;5038421;28;20196;-72
2021/11/07 08:32:00;;;;;;;3.70;2.37;;;9.50;99.90;;;;;;5036660;28;20418;-71
2021/11/07 08:34:28;;;;;;;2.00;1.77;;;9.50;99.90;;;;;;5037211;28;20405;-72
2021/11/07 08:39:34;;;;;;;1.80;1.70;;;9.70;99.90;;;;;;5032729;28;20515;-69
2021/11/07 08:42:05;;;;;;;4.80;2.07;;;9.80;99.90;;;;;;5035800;28;20431;-71
2021/11/07 09:01:10;;;;;;;2.47;1.60;;;9.90;99.90;;;;;;5036237;28;20465;-72
2021/11/07 09:04:03;;;;;;;1.97;1.57;;;10.00;99.90;;;;;;5035489;28;20936;-71
2021/11/07 09:06:40;;;;;;;2.03;1.60;;;10.00;99.90;;;;;;5037065;28;20415;-71
2021/11/07 09:09:15;;;;;;;1.80;1.23;;;10.10;99.90;;;;;;5037468;28;20794;-71
2021/11/07 09:11:53;;;;;;;1.60;1.47;;;10.20;99.90;;;;;;5041955;28;20473;-72
2021/11/07 09:14:25;;;;;;;3.97;1.70;;;10.20;99.90;;;;;;5055639;28;20406;-72
2021/11/07 09:16:53;;;;;;;2.07;1.67;;;10.20;99.90;;;;;;5056082;28;20818;-73
2021/11/07 09:19:23;;;;;;;1.43;1.30;;;10.30;99.90;;;;;;5056041;28;20824;-71
2021/11/07 09:22:00;;;;;;;1.60;1.20;;;10.30;99.90;;;;;;5055535;28;20428;-71
2021/11/07 09:24:41;;;;;;;1.23;1.10;;;10.30;99.90;;;;;;5038794;28;20402;-70
2021/11/07 09:27:22;;;;;;;2.27;1.13;;;10.30;99.90;;;;;;5036265;28;20441;-72
2021/11/07 09:29:57;;;;;;;1.30;1.20;;;10.40;99.90;;;;;;5036098;28;20434;-71
2021/11/07 09:40:06;;;;;;;1.80;1.37;;;10.70;99.90;;;;;;5036825;28;20469;-71
2021/11/07 09:50:44;;;;;;;2.10;1.67;;;10.70;99.90;;;;;;5035108;28;20442;-71
2021/11/07 09:53:09;;;;;;;2.47;1.37;;;10.70;99.90;;;;;;5033860;28;20419;-71
2021/11/07 09:55:36;;;;;;;1.20;1.10;;;10.80;99.90;;;;;;5034763;28;20411;-70
2021/11/07 09:58:03;;;;;;;2.40;1.47;;;10.70;99.90;;;;;;5034361;28;20214;-70
2021/11/07 10:00:47;;;;;;;1.40;1.30;;;10.70;99.90;;;;;;5034916;28;20533;-71
2021/11/07 10:03:15;;;;;;;2.00;1.27;;;10.90;99.90;;;;;;5034790;28;20457;-71
2021/11/07 10:05:45;;;;;;;2.43;1.73;;;10.80;99.90;;;;;;5034315;28;20492;-71
2021/11/07 10:08:12;;;;;;;1.67;1.20;;;10.90;99.90;;;;;;5034978;28;20445;-69
2021/11/07 10:10:53;;;;;;;1.33;1.23;;;11.00;99.90;;;;;;5031428;28;20414;-72
2021/11/07 10:13:25;;;;;;;2.03;1.27;;;11.00;99.90;;;;;;5032405;28;20413;-73
2021/11/07 10:16:00;;;;;;;1.00;0.90;;;11.00;99.90;;;;;;5032434;28;20466;-74
2021/11/07 10:18:58;;;;;;;2.03;1.30;;;11.00;99.90;;;;;;5031500;28;20540;-74
2021/11/07 10:21:24;;;;;;;1.10;1.00;;;11.00;99.90;;;;;;5030002;28;20856;-75
2021/11/07 10:24:04;;;;;;;1.50;1.37;;;11.00;99.90;;;;;;5031357;28;20501;-70
2021/11/07 10:26:35;;;;;;;1.63;1.10;;;11.00;99.90;;;;;;5031432;28;20426;-73
2021/11/07 10:29:03;;;;;;;1.33;1.20;;;11.00;99.90;;;;;;5031507;28;20488;-71
2021/11/07 10:31:34;;;;;;;0.80;0.80;;;11.20;99.90;;;;;;5031481;28;20434;-71
2021/11/07 10:45:27;;;;;;;2.67;1.30;;;11.00;99.90;;;;;;5034012;28;20411;-70
2021/11/07 10:53:45;;;;;;;0.80;0.80;;;10.90;99.90;;;;;;5034315;28;20460;-70
2021/11/07 10:56:12;;;;;;;1.43;1.33;;;11.00;99.90;;;;;;5024041;28;20987;-72
2021/11/07 10:58:40;;;;;;;1.40;0.90;;;11.00;99.90;;;;;;5014269;28;20427;-71
2021/11/07 11:01:12;;;;;;;0.80;0.80;;;10.80;99.90;;;;;;5022340;28;20450;-70
2021/11/07 11:03:43;;;;;;;1.80;1.27;;;10.90;99.90;;;;;;5013003;28;20477;-69
2021/11/07 11:06:12;;;;;;;0.90;0.80;;;10.80;99.90;;;;;;5018383;28;20403;-68
2021/11/07 11:08:46;;;;;;;2.13;0.93;;;10.60;99.90;;;;;;5034210;28;20422;-72
2021/11/07 11:11:26;;;;;;;2.90;1.03;;;10.40;99.90;;;;;;5033920;28;20785;-71
2021/11/07 11:14:01;;;;;;;2.37;1.27;;;10.40;99.90;;;;;;5033991;28;20517;-69
2021/11/07 11:16:37;;;;;;;1.20;0.70;;;10.10;99.90;;;;;;5033445;28;20799;-71
2021/11/07 11:22:14;;;;;;;3.27;1.10;;;9.60;99.90;;;;;;5033606;28;20437;-73
2021/11/07 11:25:03;;;;;;;1.10;1.00;;;9.60;99.90;;;;;;5033250;28;20473;-71
2021/11/07 11:28:00;;;;;;;0.83;0.70;;;9.40;99.90;;;;;;5035001;28;20399;-72
2021/11/07 11:33:45;;;;;;;2.20;0.80;;;9.30;99.90;;;;;;5003658;28;20510;-71
2021/11/07 11:38:51;;;;;;;1.27;0.93;;;9.10;99.90;;;;;;5023124;28;20464;-70
2021/11/07 11:41:28;;;;;;;1.00;0.90;;;9.00;99.90;;;;;;5032633;28;20508;-70
2021/11/07 11:43:55;;;;;;;0.70;0.70;;;9.10;99.90;;;;;;5032569;28;20402;-69
2021/11/07 11:46:37;;;;;;;0.70;0.70;;;9.20;99.90;;;;;;5032543;28;20397;-69
2021/11/07 11:49:41;;;;;;;2.73;1.00;;;9.30;99.90;;;;;;5033225;28;20426;-69
2021/11/07 11:57:39;;;;;;;1.10;0.80;;;9.10;99.90;;;;;;5013513;28;20558;-71
2021/11/07 12:03:14;;;;;;;1.20;0.80;;;9.00;99.90;;;;;;5028657;28;20834;-69
2021/11/07 12:05:49;;;;;;;1.00;0.83;;;9.00;99.90;;;;;;5033429;28;20408;-70
2021/11/07 12:08:22;;;;;;;1.90;1.13;;;9.20;99.90;;;;;;5032907;28;20508;-70
2021/11/07 12:10:56;;;;;;;1.30;1.20;;;9.20;99.90;;;;;;5031628;28;20413;-70
2021/11/07 12:14:03;;;;;;;1.37;0.90;;;9.20;99.90;;;;;;5031670;28;20406;-70
2021/11/07 12:16:56;;;;;;;0.70;0.70;;;9.20;99.90;;;;;;5032815;28;20414;-71
2021/11/07 12:19:43;;;;;;;2.73;1.00;;;9.30;99.90;;;;;;5032793;28;20505;-70
2021/11/07 12:22:29;;;;;;;1.10;1.00;;;9.40;99.90;;;;;;5032060;28;20416;-67
2021/11/07 12:25:01;;;;;;;1.57;1.13;;;9.50;99.90;;;;;;5012961;28;20498;-68
2021/11/07 12:27:34;;;;;;;1.50;1.40;;;9.50;99.90;;;;;;5013170;28;20437;-70
2021/11/07 12:30:10;;;;;;;2.90;1.23;;;9.50;99.90;;;;;;5012619;28;20762;-69
2021/11/07 12:32:38;;;;;;;1.23;1.13;;;9.60;99.90;;;;;;5024179;28;20408;-69
2021/11/07 12:35:25;;;;;;;1.77;1.37;;;9.60;99.90;;;;;;5024715;28;20419;-69
2021/11/07 12:40:46;;;;;;;6.47;2.43;;;9.60;99.90;;;;;;5031588;28;20864;-69
2021/11/07 12:43:22;;;;;;;1.90;1.10;;;9.60;99.90;;;;;;5032278;28;20412;-69
2021/11/07 12:45:55;;;;;;;2.70;1.40;;;9.70;99.90;;;;;;5016946;28;20412;-68
2021/11/07 12:48:42;;;;;;;1.87;1.17;;;9.80;99.90;;;;;;5011195;28;20420;-69
2021/11/07 12:51:11;;;;;;;1.13;0.80;;;9.90;99.90;;;;;;5012204;28;20409;-70
2021/11/07 12:54:07;;;;;;;1.10;1.00;;;9.80;99.90;;;;;;5012141;28;20418;-71
2021/11/07 12:56:35;;;;;;;2.20;1.13;;;10.00;99.90;;;;;;5011568;28;20400;-70
2021/11/07 12:59:05;;;;;;;1.20;1.03;;;10.00;99.90;;;;;;5011842;28;20557;-70
2021/11/07 13:01:50;;;;;;;1.10;1.00;;;10.00;99.90;;;;;;5034769;28;20453;-69
2021/11/07 13:04:16;;;;;;;1.00;0.90;;;10.10;99.90;;;;;;5050152;28;20417;-68
2021/11/07 13:06:42;;;;;;;3.53;1.20;;;10.10;99.90;;;;;;5051763;28;20422;-71
2021/11/07 13:09:08;;;;;;;2.00;1.73;;;10.20;99.90;;;;;;5051431;28;20414;-68
2021/11/07 13:11:39;;;;;;;3.93;1.77;;;10.20;99.90;;;;;;5051341;28;20289;-69
2021/11/07 13:14:18;;;;;;;3.27;1.20;;;10.10;99.90;;;;;;5051298;28;20416;-69
2021/11/07 13:17:07;;;;;;;4.03;1.57;;;9.90;99.90;;;;;;5051501;28;20419;-69
2021/11/07 13:19:44;;;;;;;0.93;0.93;;;9.90;99.90;;;;;;5051519;28;20503;-69
2021/11/07 13:22:36;;;;;;;1.33;0.97;;;9.90;99.90;;;;;;5051183;28;20394;-69
2021/11/07 13:25:15;;;;;;;1.10;0.90;;;9.90;99.90;;;;;;5011549;28;20434;-69
2021/11/07 13:27:46;;;;;;;4.20;1.47;;;9.80;99.90;;;;;;5011593;28;20543;-69
2021/11/07 13:30:20;;;;;;;0.80;0.70;;;9.90;99.90;;;;;;5011462;28;20424;-69
2021/11/07 13:32:47;;;;;;;0.83;0.83;;;9.90;99.90;;;;;;5024077;28;20565;-69
2021/11/07 13:35:24;;;;;;;2.17;1.10;;;10.00;99.90;;;;;;5031196;28;20552;-69
2021/11/07 13:38:12;;;;;;;3.67;1.00;;;9.90;99.90;;;;;;5030988;28;20406;-69
2021/11/07 13:40:40;;;;;;;0.80;0.73;;;10.00;99.90;;;;;;5023315;28;20444;-69
2021/11/07 13:43:20;;;;;;;2.37;1.40;;;9.90;99.90;;;;;;5031853;28;20451;-70
2021/11/07 13:45:52;;;;;;;6.33;1.33;;;9.90;99.90;;;;;;5031192;28;20408;-75
2021/11/07 13:48:22;;;;;;;1.23;1.10;;;9.80;99.90;;;;;;5031235;28;20425;-69
2021/11/07 13:50:50;;;;;;;1.13;1.03;;;9.70;99.90;;;;;;5031138;28;20418;-70
2021/11/07 13:53:29;;;;;;;1.47;1.37;;;9.70;99.90;;;;;;5031094;28;20416;-70
2021/11/07 13:55:58;;;;;;;0.80;0.80;;;9.60;99.90;;;;;;5031169;28;20399;-70
2021/11/07 13:58:27;;;;;;;1.20;1.10;;;9.60;99.90;;;;;;5031095;28;20472;-70
2021/11/07 14:00:58;;;;;;;1.47;0.90;;;9.60;99.90;;;;;;5031063;28;20484;-71
2021/11/07 14:03:24;;;;;;;5.40;1.00;;;9.60;99.90;;;;;;5030491;28;20406;-70
2021/11/07 14:05:51;;;;;;;3.23;2.10;;;9.60;99.90;;;;;;5011299;28;20741;-69
2021/11/07 14:08:16;;;;;;;6.83;0.90;;;9.60;99.90;;;;;;5011838;28;20434;-70
2021/11/07 14:10:42;;;;;;;1.00;0.90;;;9.50;99.90;;;;;;5033955;28;20414;-70
2021/11/07 14:13:10;;;;;;;1.43;1.30;;;9.50;99.90;;;;;;5034986;28;20236;-70
2021/11/07 14:15:38;;;;;;;1.93;1.00;;;9.50;99.90;;;;;;5034844;28;20177;-70
2021/11/07 14:18:14;;;;;;;1.80;1.23;;;9.50;99.90;;;;;;5034639;28;20966;-69
2021/11/07 14:20:59;;;;;;;0.80;0.80;;;9.50;99.90;;;;;;5034580;28;20474;-69
2021/11/07 14:26:07;;;;;;;4.40;1.10;;;9.40;99.90;;;;;;5034792;28;20441;-70
2021/11/07 14:28:48;;;;;;;1.33;1.13;;;9.40;99.90;;;;;;5034516;28;20505;-68
2021/11/07 14:31:17;;;;;;;1.20;1.10;;;9.40;99.90;;;;;;5034642;28;20385;-70
2021/11/07 14:33:55;;;;;;;2.70;1.40;;;9.30;99.90;;;;;;5014776;28;20442;-69
2021/11/07 14:36:45;;;;;;;1.83;1.20;;;9.30;99.90;;;;;;5014926;28;20398;-69